createdAt,value
2023-03-29T00:16:30.149Z,67.95
2023-03-29T00:18:56.807Z,68.11
2023-03-29T00:21:23.297Z,68.65
2023-03-29T00:23:50.144Z,68.59
2023-03-29T00:26:16.621Z,68.20
2023-03-29T00:28:43.182Z,68.28
2023-03-29T00:31:14.042Z,67.94
2023-03-29T00:33:41.342Z,68.26
2023-03-29T00:36:10.283Z,68.70
2023-03-29T00:38:37.369Z,68.06
2023-03-29T00:41:05.031Z,68.22
2023-03-29T00:43:31.485Z,68.18
2023-03-29T00:45:58.034Z,68.02
2023-03-29T00:48:28.926Z,67.85
2023-03-29T00:51:09.964Z,68.19
2023-03-29T00:53:42.333Z,68.22
2023-03-29T00:56:19.505Z,68.16
2023-03-29T00:58:58.397Z,68.02
2023-03-29T01:01:54.601Z,68.09
2023-03-29T01:04:36.910Z,68.16
2023-03-29T01:07:13.477Z,68.41
2023-03-29T01:09:43.881Z,68.13
2023-03-29T01:12:17.104Z,68.44
2023-03-29T01:14:59.321Z,68.75
2023-03-29T01:17:26.021Z,68.00
2023-03-29T01:19:59.181Z,68.25
2023-03-29T01:22:44.671Z,68.91
2023-03-29T01:25:26.072Z,68.45
2023-03-29T01:28:03.001Z,68.02
2023-03-29T01:30:34.540Z,68.46
2023-03-29T01:33:21.104Z,68.52
2023-03-29T01:36:08.123Z,68.58
2023-03-29T01:38:45.110Z,68.89
2023-03-29T01:41:12.394Z,69.00
2023-03-29T01:43:44.525Z,68.84
2023-03-29T01:46:25.089Z,69.17
2023-03-29T01:48:56.835Z,69.38
2023-03-29T01:51:36.378Z,68.81
2023-03-29T01:54:32.978Z,69.63
2023-03-29T01:57:04.601Z,68.93
2023-03-29T01:59:34.614Z,68.99
2023-03-29T02:02:05.490Z,68.71
2023-03-29T02:04:40.626Z,69.54
2023-03-29T02:07:10.473Z,68.79
2023-03-29T02:09:38.572Z,68.91
2023-03-29T02:12:08.214Z,68.68
2023-03-29T02:14:35.484Z,69.40
2023-03-29T02:17:23.200Z,68.85
2023-03-29T02:19:54.907Z,69.00
2023-03-29T02:22:29.759Z,69.49
2023-03-29T02:24:59.527Z,69.06
2023-03-29T02:27:29.916Z,69.06
2023-03-29T02:29:57.770Z,69.12
2023-03-29T02:32:40.269Z,69.03
2023-03-29T02:35:16.602Z,69.40
2023-03-29T02:37:46.453Z,69.67
2023-03-29T02:40:14.886Z,69.33
2023-03-29T02:42:45.031Z,69.29
2023-03-29T02:45:17.174Z,69.24
2023-03-29T02:47:56.030Z,69.14
2023-03-29T02:50:25.997Z,69.31
2023-03-29T02:53:01.766Z,69.63
2023-03-29T02:55:34.589Z,69.23
2023-03-29T02:58:08.660Z,69.13
2023-03-29T03:00:45.194Z,69.15
2023-03-29T03:03:13.466Z,69.13
2023-03-29T03:05:40.264Z,69.30
2023-03-29T03:08:07.454Z,69.43
2023-03-29T03:10:35.359Z,69.52
2023-03-29T03:13:03.247Z,69.29
2023-03-29T03:15:31.175Z,69.23
2023-03-29T03:17:57.853Z,69.40
2023-03-29T03:20:24.384Z,68.99
2023-03-29T03:22:51.314Z,70.01
2023-03-29T03:25:21.245Z,69.77
2023-03-29T03:27:50.152Z,69.79
2023-03-29T03:30:19.337Z,70.13
2023-03-29T03:32:57.673Z,70.13
2023-03-29T03:35:49.784Z,70.00
2023-03-29T03:38:17.239Z,70.11
2023-03-29T03:40:53.707Z,69.98
2023-03-29T03:43:20.170Z,69.86
2023-03-29T03:45:48.265Z,69.83
2023-03-29T03:48:18.268Z,69.85
2023-03-29T03:51:03.510Z,70.12
2023-03-29T03:53:33.782Z,70.28
2023-03-29T03:56:20.672Z,69.61
2023-03-29T03:59:09.602Z,69.94
2023-03-29T04:01:45.714Z,70.08
2023-03-29T04:04:19.735Z,69.85
2023-03-29T04:07:11.450Z,70.06
2023-03-29T04:09:45.346Z,70.18
2023-03-29T04:12:23.321Z,69.73
2023-03-29T04:14:50.276Z,70.17
2023-03-29T04:17:21.295Z,70.06
2023-03-29T04:20:12.796Z,69.29
2023-03-29T04:22:41.086Z,69.94
2023-03-29T04:25:08.457Z,70.15
2023-03-29T04:27:47.834Z,70.34
2023-03-29T04:30:45.791Z,70.00
2023-03-29T04:33:15.337Z,69.69
2023-03-29T04:35:46.888Z,70.24
2023-03-29T04:38:16.780Z,70.13
2023-03-29T04:40:45.567Z,70.12
2023-03-29T04:43:22.536Z,70.05
2023-03-29T04:45:58.459Z,69.78
2023-03-29T04:48:43.952Z,70.16
2023-03-29T04:51:11.545Z,70.39
2023-03-29T04:53:38.898Z,70.07
2023-03-29T04:56:07.956Z,70.23
2023-03-29T04:58:57.643Z,69.84
2023-03-29T05:01:24.254Z,70.05
2023-03-29T05:03:56.944Z,70.13
2023-03-29T05:06:29.210Z,70.15
2023-03-29T05:08:55.707Z,70.15
2023-03-29T05:11:29.501Z,70.19
2023-03-29T05:13:58.518Z,70.01
2023-03-29T05:16:30.005Z,70.30
2023-03-29T05:18:57.997Z,69.89
2023-03-29T05:21:26.310Z,69.77
2023-03-29T05:23:53.282Z,70.37
2023-03-29T05:26:45.230Z,70.77
2023-03-29T05:29:12.573Z,70.33
2023-03-29T05:31:40.925Z,70.54
2023-03-29T05:34:10.740Z,70.30
2023-03-29T05:36:42.903Z,70.18
2023-03-29T05:39:10.883Z,70.41
2023-03-29T05:41:37.885Z,70.88
2023-03-29T05:44:40.322Z,70.59
2023-03-29T05:47:14.866Z,70.82
2023-03-29T05:49:41.305Z,70.47
2023-03-29T05:52:20.712Z,70.56
2023-03-29T05:54:47.437Z,71.05
2023-03-29T05:57:15.142Z,71.26
2023-03-29T05:59:42.330Z,71.11
2023-03-29T06:02:11.618Z,70.54
2023-03-29T06:04:43.433Z,70.99
2023-03-29T06:07:36.104Z,71.38
2023-03-29T06:10:26.005Z,71.07
2023-03-29T06:13:02.447Z,70.72
2023-03-29T06:15:32.907Z,71.02
2023-03-29T06:18:04.563Z,70.73
2023-03-29T06:20:31.699Z,71.34
2023-03-29T06:23:03.852Z,70.95
2023-03-29T06:25:30.382Z,71.22
2023-03-29T06:27:58.419Z,70.64
2023-03-29T06:30:25.073Z,71.68
2023-03-29T06:32:54.632Z,71.17
2023-03-29T06:35:45.783Z,71.48
2023-03-29T06:38:16.518Z,71.53
2023-03-29T06:41:08.370Z,71.40
2023-03-29T06:43:55.111Z,71.78
2023-03-29T06:46:24.316Z,71.87
2023-03-29T06:48:56.270Z,71.54
2023-03-29T06:51:29.006Z,71.82
2023-03-29T06:53:55.825Z,71.72
2023-03-29T06:56:22.319Z,71.55
2023-03-29T06:59:01.059Z,71.44
2023-03-29T07:01:34.660Z,71.67
2023-03-29T07:04:11.239Z,71.56
2023-03-29T07:07:07.751Z,71.91
2023-03-29T07:09:35.825Z,72.36
2023-03-29T07:12:26.320Z,72.48
2023-03-29T07:14:57.267Z,71.56
2023-03-29T07:17:28.756Z,72.51
2023-03-29T07:19:55.362Z,72.20
2023-03-29T07:22:38.499Z,72.40
2023-03-29T07:25:08.620Z,71.89
2023-03-29T07:27:39.456Z,72.07
2023-03-29T07:30:11.191Z,71.72
2023-03-29T07:32:39.933Z,71.78
2023-03-29T07:35:23.581Z,72.47
2023-03-29T07:37:50.550Z,72.72
2023-03-29T07:40:23.039Z,72.01
2023-03-29T07:42:56.639Z,72.47
2023-03-29T07:45:28.377Z,72.57
2023-03-29T07:48:06.178Z,72.75
2023-03-29T07:50:58.896Z,73.01
2023-03-29T07:53:30.887Z,72.98
2023-03-29T07:55:59.325Z,73.07
2023-03-29T07:58:44.431Z,73.26
2023-03-29T08:01:17.156Z,73.15
2023-03-29T08:04:04.813Z,73.61
2023-03-29T08:06:57.244Z,73.06
2023-03-29T08:09:33.123Z,73.32
2023-03-29T08:11:59.682Z,73.77
2023-03-29T08:14:33.216Z,73.49
2023-03-29T08:17:22.287Z,73.25
2023-03-29T08:19:50.693Z,73.48
2023-03-29T08:22:20.541Z,73.92
2023-03-29T08:25:19.768Z,73.92
2023-03-29T08:27:50.621Z,74.08
2023-03-29T08:30:27.926Z,74.03
2023-03-29T08:32:56.348Z,74.19
2023-03-29T08:35:23.136Z,74.36
2023-03-29T08:38:10.442Z,74.54
2023-03-29T08:40:37.142Z,74.52
2023-03-29T08:43:29.728Z,74.19
2023-03-29T08:46:49.665Z,74.24
2023-03-29T08:49:26.173Z,74.85
2023-03-29T08:51:58.423Z,74.45
2023-03-29T08:54:28.307Z,74.13
2023-03-29T08:57:40.719Z,74.12
2023-03-29T09:00:21.627Z,74.21
2023-03-29T09:02:51.741Z,73.89
2023-03-29T09:05:25.169Z,73.84
2023-03-29T09:08:13.452Z,74.13
2023-03-29T09:10:47.091Z,74.29
2023-03-29T09:13:42.299Z,74.25
2023-03-29T09:16:41.137Z,74.10
2023-03-29T09:19:26.778Z,74.14
2023-03-29T09:22:09.421Z,74.05
2023-03-29T09:24:47.057Z,74.01
2023-03-29T09:27:32.266Z,74.32
2023-03-29T09:30:31.915Z,74.19
2023-03-29T09:33:31.469Z,73.76
2023-03-29T09:36:46.258Z,73.86
2023-03-29T09:39:14.748Z,74.03
2023-03-29T09:41:58.397Z,73.67
2023-03-29T09:44:31.908Z,73.32
2023-03-29T09:47:29.995Z,73.52
2023-03-29T09:50:04.993Z,73.25
2023-03-29T09:52:32.590Z,73.00
2023-03-29T09:55:15.942Z,73.58
2023-03-29T09:58:07.273Z,73.85
2023-03-29T10:00:39.810Z,73.58
2023-03-29T10:03:17.098Z,73.82
2023-03-29T10:05:53.274Z,73.92
2023-03-29T10:08:27.195Z,73.68
2023-03-29T10:11:01.532Z,73.65
2023-03-29T10:13:31.582Z,73.46
2023-03-29T10:16:09.654Z,73.44
2023-03-29T10:18:41.786Z,73.42
2023-03-29T10:21:13.007Z,73.55
2023-03-29T10:23:39.431Z,73.48
2023-03-29T10:26:17.792Z,73.38
2023-03-29T10:28:44.681Z,73.38
2023-03-29T10:31:19.161Z,73.63
2023-03-29T10:33:52.348Z,73.94
2023-03-29T10:36:19.757Z,74.11
2023-03-29T10:38:46.542Z,74.27
2023-03-29T10:41:17.152Z,74.35
2023-03-29T10:43:49.202Z,74.20
2023-03-29T10:46:33.630Z,74.47
2023-03-29T10:49:09.922Z,74.66
2023-03-29T10:51:37.460Z,74.40
2023-03-29T10:54:05.226Z,74.46
2023-03-29T10:57:04.847Z,74.70
2023-03-29T11:00:07.011Z,74.72
2023-03-29T11:02:39.650Z,74.70
2023-03-29T11:05:32.662Z,74.53
2023-03-29T11:08:05.198Z,74.82
2023-03-29T11:10:45.230Z,74.64
2023-03-29T11:13:30.237Z,74.64
2023-03-29T11:16:16.854Z,74.47
2023-03-29T11:19:03.667Z,74.27
2023-03-29T11:21:58.979Z,74.60
2023-03-29T11:24:54.781Z,74.20
2023-03-29T11:27:41.660Z,74.56
2023-03-29T11:30:15.578Z,74.94
2023-03-29T11:32:54.560Z,75.19
2023-03-29T11:35:58.417Z,75.24
2023-03-29T11:38:57.058Z,75.82
2023-03-29T11:41:30.199Z,76.00
2023-03-29T11:44:17.625Z,75.72
2023-03-29T11:46:46.712Z,75.74
2023-03-29T11:49:25.084Z,75.59
2023-03-29T11:52:14.379Z,75.41
2023-03-29T11:55:03.500Z,75.28
2023-03-29T11:58:01.045Z,75.30
2023-03-29T12:00:32.899Z,75.31
2023-03-29T12:03:13.344Z,75.39
2023-03-29T12:05:43.045Z,75.44
2023-03-29T12:08:28.608Z,75.38
2023-03-29T12:11:07.907Z,75.27
2023-03-29T12:13:43.858Z,75.28
2023-03-29T12:16:20.539Z,75.32
2023-03-29T12:18:51.294Z,75.29
2023-03-29T12:21:23.130Z,75.17
2023-03-29T12:23:52.205Z,75.52
2023-03-29T12:26:37.937Z,75.77
2023-03-29T12:29:36.293Z,75.66
2023-03-29T12:32:19.398Z,75.82
2023-03-29T12:35:18.006Z,75.77
2023-03-29T12:38:20.854Z,75.99
2023-03-29T12:41:24.283Z,76.48
2023-03-29T12:44:16.442Z,75.71
2023-03-29T12:46:59.860Z,75.43
2023-03-29T12:49:35.282Z,75.67
2023-03-29T12:52:23.217Z,75.39
2023-03-29T12:54:54.894Z,75.22
2023-03-29T12:57:27.836Z,75.08
2023-03-29T12:59:54.943Z,75.35
2023-03-29T13:02:21.828Z,75.05
2023-03-29T13:04:52.937Z,75.08
2023-03-29T13:07:22.546Z,75.27
2023-03-29T13:10:06.907Z,75.41
2023-03-29T13:12:45.788Z,75.05
2023-03-29T13:15:16.633Z,74.82
2023-03-29T13:17:49.242Z,74.82
2023-03-29T13:20:40.663Z,74.73
2023-03-29T13:23:22.335Z,74.72
2023-03-29T13:26:17.393Z,74.63
2023-03-29T13:29:15.352Z,74.28
2023-03-29T13:31:51.811Z,74.29
2023-03-29T13:34:46.461Z,74.41
2023-03-29T13:37:41.157Z,74.33
2023-03-29T13:40:29.542Z,74.19
2023-03-29T13:43:08.012Z,74.32
2023-03-29T13:45:36.483Z,74.13
2023-03-29T13:48:19.837Z,73.92
2023-03-29T13:50:57.977Z,73.74
2023-03-29T13:53:57.158Z,73.43
2023-03-29T13:56:28.550Z,73.20
2023-03-29T13:59:05.597Z,73.08
2023-03-29T14:01:57.226Z,73.17
2023-03-29T14:04:27.568Z,73.04
2023-03-29T14:06:57.952Z,72.88
2023-03-29T14:09:31.586Z,72.97
2023-03-29T14:12:00.705Z,73.03
2023-03-29T14:14:30.122Z,73.21
2023-03-29T14:16:57.095Z,73.38
2023-03-29T14:19:34.372Z,73.37
2023-03-29T14:22:02.905Z,73.59
2023-03-29T14:24:40.284Z,73.73
2023-03-29T14:27:10.198Z,73.64
2023-03-29T14:29:37.153Z,73.51
2023-03-29T14:32:30.815Z,73.34
2023-03-29T14:34:57.901Z,73.40
2023-03-29T14:37:29.727Z,73.24
2023-03-29T14:39:58.735Z,73.37
2023-03-29T14:42:27.881Z,73.35
2023-03-29T14:45:03.909Z,73.22
2023-03-29T14:47:31.972Z,72.99
2023-03-29T14:50:00.890Z,72.94
2023-03-29T14:52:31.915Z,72.90
2023-03-29T14:55:01.752Z,72.71
2023-03-29T14:57:34.207Z,73.05
2023-03-29T15:00:16.243Z,72.90
2023-03-29T15:03:04.150Z,73.25
2023-03-29T15:05:39.452Z,73.15
2023-03-29T15:08:12.501Z,73.23
2023-03-29T15:10:41.787Z,73.22
2023-03-29T15:13:19.547Z,73.14
2023-03-29T15:15:46.477Z,73.00
2023-03-29T15:18:16.389Z,72.79
2023-03-29T15:20:44.882Z,72.75
2023-03-29T15:23:14.310Z,72.62
2023-03-29T15:26:10.510Z,72.76
2023-03-29T15:28:46.773Z,72.77
2023-03-29T15:31:17.649Z,72.37
2023-03-29T15:33:45.537Z,72.36
2023-03-29T15:36:13.996Z,72.60
2023-03-29T15:38:45.017Z,72.58
2023-03-29T15:41:14.064Z,72.75
2023-03-29T15:43:41.484Z,72.58
2023-03-29T15:46:10.360Z,72.77
2023-03-29T15:48:37.286Z,72.69
2023-03-29T15:51:06.365Z,72.86
2023-03-29T15:53:33.546Z,72.74
2023-03-29T15:56:02.529Z,72.91
2023-03-29T15:58:31.708Z,73.13
2023-03-29T16:01:19.029Z,73.31
2023-03-29T16:03:47.654Z,73.38
2023-03-29T16:06:15.095Z,73.25
2023-03-29T16:08:41.781Z,73.67
2023-03-29T16:11:08.194Z,73.63
2023-03-29T16:13:34.858Z,73.65
2023-03-29T16:16:01.870Z,73.89
2023-03-29T16:18:28.589Z,73.87
2023-03-29T16:20:55.268Z,73.92
2023-03-29T16:23:21.953Z,73.97
2023-03-29T16:25:48.430Z,74.12
2023-03-29T16:28:14.894Z,74.27
2023-03-29T16:30:41.632Z,74.18
2023-03-29T16:33:08.564Z,74.17
2023-03-29T16:35:40.013Z,74.03
2023-03-29T16:38:07.118Z,73.50
2023-03-29T16:40:34.182Z,73.07
2023-03-29T16:43:01.585Z,72.75
2023-03-29T16:45:28.051Z,73.04
2023-03-29T16:47:55.584Z,73.23
2023-03-29T16:50:22.195Z,73.54
2023-03-29T16:52:49.084Z,73.51
2023-03-29T16:55:18.792Z,73.39
2023-03-29T16:57:46.761Z,73.42
2023-03-29T17:00:16.000Z,73.55
2023-03-29T17:02:43.625Z,73.62
2023-03-29T17:05:11.647Z,73.65
2023-03-29T17:07:43.003Z,73.58
2023-03-29T17:10:11.568Z,73.37
2023-03-29T17:12:38.345Z,73.65
2023-03-29T17:15:06.451Z,73.52
2023-03-29T17:17:34.233Z,73.67
2023-03-29T17:20:00.799Z,73.64
2023-03-29T17:22:27.197Z,73.66
2023-03-29T17:24:53.665Z,73.92
2023-03-29T17:27:20.924Z,73.80
2023-03-29T17:29:47.564Z,73.74
2023-03-29T17:32:14.066Z,73.58
2023-03-29T17:34:40.818Z,73.75
2023-03-29T17:37:07.579Z,73.73
2023-03-29T17:39:37.272Z,73.87
2023-03-29T17:42:05.066Z,73.86
2023-03-29T17:44:33.149Z,74.02
2023-03-29T17:47:00.786Z,73.79
2023-03-29T17:49:27.706Z,73.97
2023-03-29T17:51:54.326Z,74.17
2023-03-29T17:54:20.809Z,74.32
2023-03-29T17:56:47.255Z,74.28
2023-03-29T17:59:13.700Z,74.09
2023-03-29T18:01:40.337Z,74.23
2023-03-29T18:04:07.436Z,74.39
2023-03-29T18:06:33.954Z,74.42
2023-03-29T18:09:01.506Z,74.63
2023-03-29T18:11:28.417Z,74.70
2023-03-29T18:13:58.900Z,74.66
2023-03-29T18:16:25.565Z,74.52
2023-03-29T18:18:52.199Z,74.77
2023-03-29T18:21:19.139Z,74.87
2023-03-29T18:23:47.931Z,74.85
2023-03-29T18:26:17.667Z,75.08
2023-03-29T18:28:48.492Z,75.21
2023-03-29T18:31:15.795Z,74.98
2023-03-29T18:33:42.529Z,75.06
2023-03-29T18:36:12.607Z,75.29
2023-03-29T18:38:43.024Z,75.57
2023-03-29T18:41:12.052Z,75.52
2023-03-29T18:43:39.692Z,75.43
2023-03-29T18:46:07.717Z,75.82
2023-03-29T18:48:41.709Z,75.54
2023-03-29T18:51:10.036Z,75.52
2023-03-29T18:53:38.581Z,75.52
2023-03-29T18:56:06.425Z,75.47
2023-03-29T18:58:32.976Z,75.72
2023-03-29T19:01:05.109Z,76.04
2023-03-29T19:03:34.892Z,76.05
2023-03-29T19:06:02.680Z,75.75
2023-03-29T19:08:29.304Z,75.96
2023-03-29T19:11:03.750Z,75.75
2023-03-29T19:13:30.197Z,75.99
2023-03-29T19:15:56.727Z,76.09
2023-03-29T19:18:23.252Z,76.21
2023-03-29T19:20:51.182Z,76.20
2023-03-29T19:23:18.191Z,76.19
2023-03-29T19:25:54.687Z,76.25
2023-03-29T19:28:21.837Z,76.18
2023-03-29T19:30:48.535Z,75.99
2023-03-29T19:33:15.081Z,75.99
2023-03-29T19:35:42.013Z,76.08
2023-03-29T19:38:08.718Z,76.12
2023-03-29T19:40:36.418Z,76.41
2023-03-29T19:43:03.447Z,75.94
2023-03-29T19:45:30.003Z,76.27
2023-03-29T19:47:58.208Z,76.17
2023-03-29T19:50:26.281Z,76.26
2023-03-29T19:52:57.076Z,76.54
2023-03-29T19:55:23.505Z,76.61
2023-03-29T19:57:49.868Z,76.76
2023-03-29T20:00:17.221Z,76.74
2023-03-29T20:02:43.894Z,76.69
2023-03-29T20:05:10.327Z,76.51
2023-03-29T20:07:36.733Z,76.79
2023-03-29T20:10:03.686Z,77.03
2023-03-29T20:12:30.153Z,77.14
2023-03-29T20:14:56.585Z,77.18
2023-03-29T20:17:23.300Z,77.24
2023-03-29T20:19:50.167Z,77.47
2023-03-29T20:22:16.581Z,77.32
2023-03-29T20:24:42.993Z,77.50
2023-03-29T20:27:09.728Z,77.53
2023-03-29T20:29:36.392Z,77.46
2023-03-29T20:32:03.074Z,77.68
2023-03-29T20:34:29.802Z,77.69
2023-03-29T20:37:00.567Z,77.62
2023-03-29T20:39:28.253Z,77.84
2023-03-29T20:41:54.836Z,77.65
2023-03-29T20:44:26.053Z,77.56
2023-03-29T20:47:03.312Z,77.62
2023-03-29T20:49:37.709Z,77.54
2023-03-29T20:52:12.754Z,77.83
2023-03-29T20:54:39.649Z,77.64
2023-03-29T20:57:16.232Z,77.62
2023-03-29T20:59:44.062Z,77.80
2023-03-29T21:02:17.120Z,77.60
2023-03-29T21:04:44.101Z,77.67
2023-03-29T21:07:11.082Z,77.92
2023-03-29T21:09:37.743Z,78.05
2023-03-29T21:12:04.249Z,78.19
2023-03-29T21:14:33.242Z,77.88
2023-03-29T21:16:59.761Z,77.70
2023-03-29T21:19:26.308Z,77.24
2023-03-29T21:21:54.983Z,77.37
2023-03-29T21:24:21.843Z,77.42
2023-03-29T21:26:48.291Z,77.53
2023-03-29T21:29:14.752Z,77.50
2023-03-29T21:31:41.454Z,77.82
2023-03-29T21:34:07.994Z,77.79
2023-03-29T21:36:34.435Z,77.75
2023-03-29T21:39:00.847Z,77.85
2023-03-29T21:41:27.493Z,77.85
2023-03-29T21:43:53.912Z,77.47
2023-03-29T21:46:20.461Z,77.74
2023-03-29T21:48:46.945Z,77.63
2023-03-29T21:51:13.412Z,77.42
2023-03-29T21:53:39.912Z,77.45
2023-03-29T21:56:08.219Z,77.50
2023-03-29T21:58:34.720Z,77.34
2023-03-29T22:01:03.682Z,77.24
2023-03-29T22:03:31.346Z,77.57
2023-03-29T22:06:00.536Z,77.37
2023-03-29T22:08:27.129Z,77.26
2023-03-29T22:10:55.462Z,77.19
2023-03-29T22:13:23.914Z,77.15
2023-03-29T22:16:03.568Z,77.08
2023-03-29T22:18:46.761Z,76.75
2023-03-29T22:21:17.347Z,76.89
2023-03-29T22:23:47.194Z,76.83
2023-03-29T22:26:15.978Z,76.72
2023-03-29T22:28:43.277Z,76.75
2023-03-29T22:31:13.720Z,76.76
2023-03-29T22:33:41.688Z,76.67
2023-03-29T22:36:19.650Z,76.79
2023-03-29T22:38:47.380Z,76.61
2023-03-29T22:41:15.223Z,76.55
2023-03-29T22:43:41.851Z,76.86
2023-03-29T22:46:11.068Z,76.55
2023-03-29T22:48:37.626Z,76.33
2023-03-29T22:51:05.468Z,76.27
2023-03-29T22:53:33.301Z,75.96
2023-03-29T22:55:59.742Z,75.75
2023-03-29T22:58:26.713Z,75.95
2023-03-29T23:00:53.133Z,75.84
2023-03-29T23:03:19.627Z,75.59
2023-03-29T23:05:54.825Z,75.55
2023-03-29T23:08:22.230Z,75.37
2023-03-29T23:10:48.702Z,75.22
2023-03-29T23:13:19.937Z,75.24
2023-03-29T23:15:48.675Z,75.08
2023-03-29T23:18:18.088Z,74.82
2023-03-29T23:20:47.083Z,74.86
2023-03-29T23:23:15.342Z,74.60
2023-03-29T23:25:46.512Z,74.64
2023-03-29T23:28:14.630Z,74.24
2023-03-29T23:30:41.006Z,74.14
2023-03-29T23:33:07.507Z,74.20
2023-03-29T23:35:33.958Z,74.10
2023-03-29T23:38:00.747Z,74.03
2023-03-29T23:40:27.886Z,73.92
2023-03-29T23:42:59.378Z,73.72
2023-03-29T23:45:27.787Z,73.28
2023-03-29T23:47:54.240Z,73.10
2023-03-29T23:50:22.543Z,73.17
2023-03-29T23:52:49.577Z,73.04
2023-03-29T23:55:16.102Z,73.15
2023-03-29T23:57:42.934Z,73.08
